Time;durP1;ratioP1;P1;durP2;ratioP2;P2;SDS_P1;SDS_P2;PMS_P1;PMS_P2;Temp;Humidity;BMP_temperature;BMP_pressure;BME280_temperature;BME280_humidity;BME280_pressure;Samples;Min_cycle;Max_cycle;Signal;HPM_P1;HPM_P2
2023/09/03 00:01:19;;;;;;;12.90;10.63;;;;;;;;;;5115288;28;20042;-78
2023/09/03 00:03:45;;;;;;;10.77;9.40;;;;;;;;;;5113248;27;20111;-79
2023/09/03 00:06:11;;;;;;;10.43;8.75;;;;;;;;;;5100026;28;20569;-78
2023/09/03 00:08:37;;;;;;;9.98;8.95;;;;;;;;;;5115335;28;20130;-78
2023/09/03 00:11:03;;;;;;;8.30;7.35;;;;;;;;;;5115159;28;20398;-78
2023/09/03 00:13:30;;;;;;;10.00;7.28;;;;;;;;;;5114865;28;20048;-78
2023/09/03 00:15:56;;;;;;;7.15;6.07;;;;;;;;;;5115588;28;20096;-79
2023/09/03 00:18:22;;;;;;;7.07;6.22;;;;;;;;;;5115215;28;20489;-78
2023/09/03 00:20:58;;;;;;;9.57;8.20;;;;;;;;;;5115123;28;20164;-79
2023/09/03 00:23:24;;;;;;;12.10;9.02;;;;;;;;;;5115124;28;20056;-79
2023/09/03 00:25:51;;;;;;;10.73;8.88;;;;;;;;;;5114529;28;20045;-78
2023/09/03 00:28:17;;;;;;;11.13;9.02;;;;;;;;;;5101060;28;20040;-79
2023/09/03 00:30:43;;;;;;;9.48;7.88;;;;;;;;;;5114904;28;20073;-78
2023/09/03 00:33:09;;;;;;;8.68;7.10;;;;;;;;;;5114719;28;20521;-78
2023/09/03 00:35:35;;;;;;;8.88;7.65;;;;;;;;;;5114837;28;20047;-78
2023/09/03 00:38:01;;;;;;;10.25;7.63;;;;;;;;;;5113189;28;20054;-78
2023/09/03 00:40:27;;;;;;;8.70;6.88;;;;;;;;;;5112147;28;20040;-78
2023/09/03 00:42:53;;;;;;;10.40;7.97;;;;;;;;;;5113191;28;20039;-78
2023/09/03 00:45:19;;;;;;;9.95;8.02;;;;;;;;;;5114896;28;20498;-78
2023/09/03 00:47:47;;;;;;;9.30;7.78;;;;;;;;;;5114549;28;20054;-78
2023/09/03 00:50:14;;;;;;;9.23;7.80;;;;;;;;;;5114476;28;20044;-78
2023/09/03 00:52:40;;;;;;;10.32;7.70;;;;;;;;;;5114432;28;20578;-78
2023/09/03 00:55:06;;;;;;;13.40;10.27;;;;;;;;;;5112970;28;20040;-79
2023/09/03 00:57:32;;;;;;;10.70;8.80;;;;;;;;;;5095845;28;20054;-78
2023/09/03 00:59:58;;;;;;;11.05;8.98;;;;;;;;;;5112698;27;20051;-78
2023/09/03 01:02:25;;;;;;;10.65;8.65;;;;;;;;;;5112731;28;20042;-78
2023/09/03 01:04:51;;;;;;;9.32;7.95;;;;;;;;;;5112319;28;20040;-78
2023/09/03 01:07:17;;;;;;;10.75;8.30;;;;;;;;;;5111191;28;20055;-79
2023/09/03 01:09:43;;;;;;;8.57;7.65;;;;;;;;;;5113550;28;20127;-78
2023/09/03 01:12:12;;;;;;;8.80;7.38;;;;;;;;;;5075030;28;20543;-78
2023/09/03 01:14:42;;;;;;;11.35;7.72;;;;;;;;;;5093545;28;20109;-78
2023/09/03 01:17:23;;;;;;;11.18;7.60;;;;;;;;;;5074352;28;20043;-78
2023/09/03 01:19:49;;;;;;;;;;;;;;;;;;5105239;28;20050;-79
2023/09/03 01:22:27;;;;;;;23.00;7.72;;;;;;;;;;5111701;28;19923;-79
2023/09/03 01:25:13;;;;;;;20.40;8.05;;;;;;;;;;5114201;28;20035;-78
2023/09/03 01:27:50;;;;;;;9.85;7.13;;;;;;;;;;5110487;28;20405;-79
2023/09/03 01:30:17;;;;;;;8.85;7.20;;;;;;;;;;5113767;28;20043;-79
2023/09/03 01:32:45;;;;;;;9.27;7.78;;;;;;;;;;5113959;28;20048;-78
2023/09/03 01:35:12;;;;;;;9.88;7.45;;;;;;;;;;5094316;28;20100;-78
2023/09/03 01:37:38;;;;;;;8.38;7.35;;;;;;;;;;5112430;28;20031;-78
2023/09/03 01:40:04;;;;;;;8.93;7.75;;;;;;;;;;5112600;28;20123;-79
2023/09/03 01:42:30;;;;;;;9.63;8.13;;;;;;;;;;5100111;28;20123;-78
2023/09/03 01:44:57;;;;;;;11.65;8.38;;;;;;;;;;5112170;28;20473;-78
2023/09/03 01:47:29;;;;;;;9.50;7.70;;;;;;;;;;5113943;28;20043;-78
2023/09/03 01:50:01;;;;;;;9.95;7.85;;;;;;;;;;5108273;28;20043;-79
2023/09/03 01:52:30;;;;;;;8.70;7.55;;;;;;;;;;5093323;28;20130;-78
2023/09/03 01:54:57;;;;;;;8.63;7.30;;;;;;;;;;5113607;28;20039;-78
2023/09/03 01:57:28;;;;;;;12.57;8.30;;;;;;;;;;5112487;28;20058;-78
2023/09/03 01:59:54;;;;;;;;;;;;;;;;;;5112580;28;20436;-78
2023/09/03 02:02:21;;;;;;;10.77;7.60;;;;;;;;;;5105951;28;19919;-78
2023/09/03 02:04:47;;;;;;;9.68;8.02;;;;;;;;;;5113632;28;20397;-78
2023/09/03 02:07:13;;;;;;;11.07;8.60;;;;;;;;;;5095457;28;20056;-78
2023/09/03 02:09:39;;;;;;;9.95;8.73;;;;;;;;;;5113741;28;20468;-78
2023/09/03 02:12:08;;;;;;;12.68;8.43;;;;;;;;;;5112423;28;20035;-78
2023/09/03 02:14:35;;;;;;;10.15;7.88;;;;;;;;;;5110627;28;20386;-78
2023/09/03 02:17:01;;;;;;;10.57;8.52;;;;;;;;;;5110473;28;20073;-79
2023/09/03 02:19:27;;;;;;;10.18;8.70;;;;;;;;;;5113768;28;20443;-78
2023/09/03 02:21:53;;;;;;;12.82;9.88;;;;;;;;;;5113406;28;20050;-79
2023/09/03 02:24:19;;;;;;;11.80;9.50;;;;;;;;;;5113156;28;20051;-78
2023/09/03 02:26:46;;;;;;;11.80;9.18;;;;;;;;;;5112550;28;20044;-78
2023/09/03 02:29:12;;;;;;;10.50;8.52;;;;;;;;;;5111977;28;20040;-78
2023/09/03 02:31:38;;;;;;;10.93;8.10;;;;;;;;;;5113131;28;20044;-78
2023/09/03 02:34:05;;;;;;;11.32;9.10;;;;;;;;;;5113275;28;20476;-79
2023/09/03 02:36:31;;;;;;;11.15;9.25;;;;;;;;;;5113266;28;20044;-78
2023/09/03 02:39:04;;;;;;;12.38;8.25;;;;;;;;;;5112580;28;20075;-78
2023/09/03 02:41:30;;;;;;;8.73;7.15;;;;;;;;;;5100173;28;20040;-79
2023/09/03 02:44:01;;;;;;;8.75;7.47;;;;;;;;;;5106243;28;20039;-78
2023/09/03 02:46:27;;;;;;;10.75;8.07;;;;;;;;;;5113352;28;20044;-78
2023/09/03 02:48:53;;;;;;;9.68;8.68;;;;;;;;;;5115053;28;20397;-78
2023/09/03 02:51:19;;;;;;;10.00;8.98;;;;;;;;;;5107833;28;20093;-78
2023/09/03 02:53:47;;;;;;;14.52;10.40;;;;;;;;;;5116876;28;20047;-78
2023/09/03 02:56:13;;;;;;;13.02;9.00;;;;;;;;;;5115540;28;20036;-78
2023/09/03 02:58:40;;;;;;;44.33;10.30;;;;;;;;;;5115887;28;20075;-78
2023/09/03 03:01:06;;;;;;;15.38;10.43;;;;;;;;;;5116877;28;20036;-78
2023/09/03 03:03:32;;;;;;;27.13;11.15;;;;;;;;;;5115697;28;20120;-78
2023/09/03 03:05:59;;;;;;;127.72;13.90;;;;;;;;;;5116946;28;20644;-78
2023/09/03 03:08:25;;;;;;;10.90;9.80;;;;;;;;;;5116558;28;20405;-76
2023/09/03 03:10:51;;;;;;;33.17;9.35;;;;;;;;;;5115021;28;20045;-79
2023/09/03 03:13:17;;;;;;;20.85;9.20;;;;;;;;;;5113376;28;20560;-78
2023/09/03 03:15:46;;;;;;;10.25;9.15;;;;;;;;;;5114997;28;20409;-78
2023/09/03 03:18:12;;;;;;;10.45;8.73;;;;;;;;;;5114891;28;20073;-78
2023/09/03 03:20:38;;;;;;;11.15;8.07;;;;;;;;;;5098045;28;20043;-78
2023/09/03 03:23:04;;;;;;;9.27;8.13;;;;;;;;;;5116430;28;20047;-77
2023/09/03 03:25:30;;;;;;;10.13;8.65;;;;;;;;;;5114783;28;20042;-78
2023/09/03 03:27:56;;;;;;;8.80;7.75;;;;;;;;;;5114744;28;20040;-77
2023/09/03 03:30:22;;;;;;;8.05;7.13;;;;;;;;;;5114758;28;20051;-77
2023/09/03 03:32:48;;;;;;;8.60;7.20;;;;;;;;;;5115688;28;20367;-78
2023/09/03 03:35:15;;;;;;;9.38;6.70;;;;;;;;;;5116299;28;20043;-78
2023/09/03 03:37:41;;;;;;;9.32;6.55;;;;;;;;;;5109592;28;20059;-78
2023/09/03 03:40:07;;;;;;;7.22;5.57;;;;;;;;;;5096772;28;20126;-77
2023/09/03 03:42:33;;;;;;;6.60;5.85;;;;;;;;;;5097394;28;20051;-78
2023/09/03 03:44:59;;;;;;;6.53;5.82;;;;;;;;;;5098704;28;20046;-78
2023/09/03 03:47:25;;;;;;;9.05;6.28;;;;;;;;;;5112856;28;20048;-78
2023/09/03 03:49:51;;;;;;;8.77;6.97;;;;;;;;;;5115840;28;20039;-78
2023/09/03 03:52:17;;;;;;;10.10;9.10;;;;;;;;;;5115764;28;20386;-78
2023/09/03 03:54:43;;;;;;;9.63;7.63;;;;;;;;;;5115926;28;20049;-78
2023/09/03 03:57:09;;;;;;;8.70;7.07;;;;;;;;;;5114226;28;20554;-77
2023/09/03 03:59:36;;;;;;;12.18;7.07;;;;;;;;;;5113489;28;20043;-79
2023/09/03 04:02:02;;;;;;;9.73;7.95;;;;;;;;;;5113436;28;20044;-78
2023/09/03 04:04:28;;;;;;;12.25;10.10;;;;;;;;;;5114607;28;20107;-78
2023/09/03 04:06:54;;;;;;;14.02;9.50;;;;;;;;;;5114025;28;20070;-78
2023/09/03 04:09:20;;;;;;;10.65;8.20;;;;;;;;;;5114678;28;20118;-78
2023/09/03 04:11:48;;;;;;;9.43;7.90;;;;;;;;;;5114608;28;20050;-78
2023/09/03 04:14:14;;;;;;;10.80;7.55;;;;;;;;;;5113923;28;20064;-78
2023/09/03 04:16:41;;;;;;;10.60;7.63;;;;;;;;;;5115081;28;20046;-78
2023/09/03 04:19:07;;;;;;;10.77;8.93;;;;;;;;;;5113505;28;20122;-78
2023/09/03 04:21:33;;;;;;;14.75;8.82;;;;;;;;;;5114790;28;20217;-78
2023/09/03 04:23:59;;;;;;;10.88;8.57;;;;;;;;;;5113808;28;20051;-78
2023/09/03 04:26:25;;;;;;;9.35;7.85;;;;;;;;;;5114165;28;20044;-78
2023/09/03 04:28:51;;;;;;;10.80;8.25;;;;;;;;;;5115128;28;20035;-78
2023/09/03 04:31:17;;;;;;;10.20;9.00;;;;;;;;;;5115035;28;20047;-78
2023/09/03 04:33:43;;;;;;;10.73;8.82;;;;;;;;;;5093749;28;20051;-78
2023/09/03 04:36:10;;;;;;;136.48;9.60;;;;;;;;;;5115273;28;20104;-78
2023/09/03 04:38:36;;;;;;;50.13;7.20;;;;;;;;;;5114968;28;20108;-78
2023/09/03 04:41:04;;;;;;;9.32;6.82;;;;;;;;;;5113370;28;20131;-78
2023/09/03 04:43:30;;;;;;;9.93;6.72;;;;;;;;;;5114209;28;20071;-78
2023/09/03 04:45:56;;;;;;;9.18;7.38;;;;;;;;;;5112407;28;20058;-78
2023/09/03 04:48:22;;;;;;;9.27;7.57;;;;;;;;;;5094113;28;20055;-78
2023/09/03 04:50:48;;;;;;;9.82;8.07;;;;;;;;;;5113174;28;20044;-78
2023/09/03 04:53:15;;;;;;;10.73;7.65;;;;;;;;;;5119281;28;20044;-78
2023/09/03 04:55:41;;;;;;;8.82;6.75;;;;;;;;;;5113950;28;20048;-78
2023/09/03 04:58:07;;;;;;;8.32;6.60;;;;;;;;;;5112422;28;20050;-78
2023/09/03 05:00:33;;;;;;;8.27;5.82;;;;;;;;;;5112962;28;20131;-78
2023/09/03 05:03:01;;;;;;;8.25;6.45;;;;;;;;;;5113721;28;20123;-78
2023/09/03 05:05:27;;;;;;;8.90;6.75;;;;;;;;;;5113447;28;20040;-78
2023/09/03 05:07:53;;;;;;;24.83;6.53;;;;;;;;;;5094234;28;20051;-78
2023/09/03 05:10:19;;;;;;;7.75;6.18;;;;;;;;;;5112771;28;20123;-78
2023/09/03 05:12:45;;;;;;;6.88;5.40;;;;;;;;;;5111635;28;20047;-78
2023/09/03 05:15:12;;;;;;;7.30;5.38;;;;;;;;;;5113434;28;20048;-78
2023/09/03 05:17:38;;;;;;;6.47;5.13;;;;;;;;;;5107718;28;20458;-78
2023/09/03 05:20:05;;;;;;;7.80;5.25;;;;;;;;;;5113573;28;20055;-78
2023/09/03 05:22:31;;;;;;;6.25;4.93;;;;;;;;;;5113492;28;20058;-78
2023/09/03 05:24:57;;;;;;;5.97;4.68;;;;;;;;;;5095193;28;20486;-78
2023/09/03 05:27:23;;;;;;;6.93;5.25;;;;;;;;;;5111026;28;20054;-79
2023/09/03 05:29:49;;;;;;;7.78;5.03;;;;;;;;;;5113198;28;20048;-79
2023/09/03 05:32:16;;;;;;;8.63;5.78;;;;;;;;;;5113045;28;20058;-78
2023/09/03 05:34:42;;;;;;;8.15;5.68;;;;;;;;;;5109975;28;20043;-78
2023/09/03 05:37:08;;;;;;;7.15;5.28;;;;;;;;;;5111915;28;20101;-78
2023/09/03 05:39:34;;;;;;;7.15;5.20;;;;;;;;;;5112400;28;20123;-79
2023/09/03 05:42:00;;;;;;;6.30;5.40;;;;;;;;;;5077518;28;20112;-78
2023/09/03 05:44:26;;;;;;;7.63;5.00;;;;;;;;;;5092482;28;20086;-78
2023/09/03 05:46:52;;;;;;;6.85;5.00;;;;;;;;;;5103019;28;20118;-78
2023/09/03 05:49:18;;;;;;;8.82;4.80;;;;;;;;;;5111945;28;20089;-79
2023/09/03 05:51:44;;;;;;;6.15;4.85;;;;;;;;;;5094196;28;20081;-78
2023/09/03 05:54:10;;;;;;;7.90;4.43;;;;;;;;;;5111529;28;20036;-79
2023/09/03 05:56:36;;;;;;;5.97;4.40;;;;;;;;;;5112785;28;20091;-78
2023/09/03 05:59:08;;;;;;;6.20;4.32;;;;;;;;;;5109985;28;20486;-79
2023/09/03 06:01:35;;;;;;;6.28;4.50;;;;;;;;;;5113165;28;20101;-78
2023/09/03 06:04:09;;;;;;;7.13;4.57;;;;;;;;;;5112899;28;20044;-79
2023/09/03 06:06:39;;;;;;;6.72;5.35;;;;;;;;;;5097452;28;20459;-79
2023/09/03 06:09:06;;;;;;;8.43;6.22;;;;;;;;;;5073703;28;20055;-79
2023/09/03 06:11:33;;;;;;;7.55;5.88;;;;;;;;;;5089414;28;20072;-79
2023/09/03 06:13:59;;;;;;;7.45;5.28;;;;;;;;;;5093273;28;20040;-79
2023/09/03 06:16:25;;;;;;;6.45;5.00;;;;;;;;;;5089637;28;20443;-80
2023/09/03 06:18:51;;;;;;;7.97;5.20;;;;;;;;;;5091618;28;20490;-80
2023/09/03 06:21:18;;;;;;;6.63;5.10;;;;;;;;;;5085699;28;20036;-78
2023/09/03 06:23:44;;;;;;;9.75;5.20;;;;;;;;;;5085920;28;20130;-76
2023/09/03 06:26:10;;;;;;;6.70;5.32;;;;;;;;;;5094103;28;20047;-77
2023/09/03 06:28:36;;;;;;;8.52;5.47;;;;;;;;;;5092207;28;20053;-77
2023/09/03 06:31:03;;;;;;;7.25;4.95;;;;;;;;;;5096218;28;20040;-77
2023/09/03 06:33:29;;;;;;;9.20;5.25;;;;;;;;;;5075554;28;20093;-77
2023/09/03 06:35:56;;;;;;;6.68;5.03;;;;;;;;;;5088200;28;20036;-77
2023/09/03 06:38:22;;;;;;;6.95;5.18;;;;;;;;;;5091653;28;20063;-76
2023/09/03 06:40:49;;;;;;;7.40;4.88;;;;;;;;;;5094310;28;20101;-77
2023/09/03 06:43:16;;;;;;;7.85;4.70;;;;;;;;;;5095946;28;20048;-77
2023/09/03 06:45:43;;;;;;;6.25;4.43;;;;;;;;;;5093679;28;20089;-77
2023/09/03 06:48:09;;;;;;;7.78;4.95;;;;;;;;;;5083527;28;20076;-77
2023/09/03 06:50:35;;;;;;;6.80;4.80;;;;;;;;;;5092937;28;20050;-77
2023/09/03 06:53:01;;;;;;;7.00;4.93;;;;;;;;;;5081603;28;20040;-78
2023/09/03 06:55:27;;;;;;;8.15;4.50;;;;;;;;;;5093828;28;20036;-78
2023/09/03 06:57:53;;;;;;;6.75;4.45;;;;;;;;;;5074797;28;20044;-77
2023/09/03 07:00:19;;;;;;;7.00;5.05;;;;;;;;;;5075392;28;20375;-78
2023/09/03 07:02:45;;;;;;;7.43;4.70;;;;;;;;;;5073675;28;20040;-78
2023/09/03 07:05:11;;;;;;;6.55;4.53;;;;;;;;;;5075219;28;20041;-78
2023/09/03 07:07:37;;;;;;;6.15;4.30;;;;;;;;;;5093504;28;20059;-78
2023/09/03 07:10:03;;;;;;;7.22;4.63;;;;;;;;;;5110023;28;20417;-78
2023/09/03 07:12:29;;;;;;;7.15;4.70;;;;;;;;;;5111530;28;20035;-77
2023/09/03 07:14:55;;;;;;;7.60;4.35;;;;;;;;;;5111756;28;20050;-78
2023/09/03 07:17:21;;;;;;;6.85;4.18;;;;;;;;;;5115088;28;20044;-78
2023/09/03 07:19:47;;;;;;;6.32;3.65;;;;;;;;;;5116060;28;20504;-79
2023/09/03 07:22:13;;;;;;;6.53;4.10;;;;;;;;;;5110764;28;20107;-78
2023/09/03 07:24:40;;;;;;;7.40;3.60;;;;;;;;;;5095588;28;20048;-78
2023/09/03 07:27:06;;;;;;;5.93;3.78;;;;;;;;;;5099001;28;20505;-78
2023/09/03 07:29:32;;;;;;;7.05;3.28;;;;;;;;;;5110097;28;20035;-77
2023/09/03 07:31:58;;;;;;;6.07;3.80;;;;;;;;;;5117588;28;20031;-78
2023/09/03 07:34:25;;;;;;;5.85;3.70;;;;;;;;;;5093779;28;20074;-78
2023/09/03 07:36:51;;;;;;;7.22;3.40;;;;;;;;;;5107608;28;20457;-77
2023/09/03 07:39:17;;;;;;;6.53;3.60;;;;;;;;;;5114671;27;20601;-78
2023/09/03 07:41:43;;;;;;;6.53;3.45;;;;;;;;;;5116785;28;20036;-80
2023/09/03 07:44:09;;;;;;;7.18;3.00;;;;;;;;;;5115852;28;20054;-78
2023/09/03 07:46:35;;;;;;;5.65;2.42;;;;;;;;;;5099064;28;20077;-78
2023/09/03 07:49:01;;;;;;;5.63;2.08;;;;;;;;;;5106410;27;20044;-78
2023/09/03 07:51:27;;;;;;;8.27;3.25;;;;;;;;;;5108642;28;20043;-76
2023/09/03 07:53:54;;;;;;;6.13;2.40;;;;;;;;;;5094136;28;20051;-77
2023/09/03 07:56:20;;;;;;;4.97;2.35;;;;;;;;;;5114215;27;20080;-76
2023/09/03 07:58:47;;;;;;;5.32;2.30;;;;;;;;;;5111522;27;20043;-77
2023/09/03 08:01:16;;;;;;;5.90;2.58;;;;;;;;;;5088680;28;20483;-80
2023/09/03 08:03:46;;;;;;;6.50;2.38;;;;;;;;;;5108933;28;20051;-77
2023/09/03 08:06:13;;;;;;;6.65;2.20;;;;;;;;;;5114731;28;20497;-78
2023/09/03 08:08:39;;;;;;;5.20;2.10;;;;;;;;;;5112788;28;20063;-78
2023/09/03 08:11:06;;;;;;;8.30;2.80;;;;;;;;;;5103605;28;20047;-77
2023/09/03 08:13:32;;;;;;;4.68;1.83;;;;;;;;;;5104215;27;20552;-78
2023/09/03 08:15:58;;;;;;;5.03;1.60;;;;;;;;;;5114929;28;20399;-78
2023/09/03 08:18:24;;;;;;;5.15;1.88;;;;;;;;;;5110954;28;20055;-77
2023/09/03 08:20:50;;;;;;;5.18;1.75;;;;;;;;;;5114093;28;20557;-77
2023/09/03 08:23:17;;;;;;;7.75;2.00;;;;;;;;;;5108139;28;20124;-77
2023/09/03 08:25:44;;;;;;;5.18;1.88;;;;;;;;;;5077386;28;20113;-77
2023/09/03 08:28:10;;;;;;;6.70;1.90;;;;;;;;;;5096471;28;20118;-77
2023/09/03 08:30:36;;;;;;;5.75;2.20;;;;;;;;;;5096244;28;20121;-78
2023/09/03 08:33:02;;;;;;;10.25;2.05;;;;;;;;;;5110651;28;20413;-77
2023/09/03 08:35:28;;;;;;;6.50;2.10;;;;;;;;;;5107981;28;20051;-77
2023/09/03 08:37:55;;;;;;;6.88;2.13;;;;;;;;;;5114041;28;20043;-77
2023/09/03 08:40:21;;;;;;;5.85;2.00;;;;;;;;;;5110955;28;20044;-77
2023/09/03 08:42:48;;;;;;;6.25;2.03;;;;;;;;;;5109318;28;20505;-77
2023/09/03 08:45:17;;;;;;;5.53;1.88;;;;;;;;;;5083892;28;20044;-77
2023/09/03 08:47:44;;;;;;;5.70;1.73;;;;;;;;;;5104246;28;20051;-78
2023/09/03 08:50:11;;;;;;;6.00;1.90;;;;;;;;;;5107869;28;20115;-77
2023/09/03 08:52:38;;;;;;;3.63;1.70;;;;;;;;;;5101157;28;20050;-77
2023/09/03 08:55:05;;;;;;;5.82;1.73;;;;;;;;;;5099147;28;20089;-79
2023/09/03 08:57:34;;;;;;;4.72;1.80;;;;;;;;;;5096672;28;20042;-77
2023/09/03 09:00:00;;;;;;;5.40;2.15;;;;;;;;;;5103763;28;20044;-77
2023/09/03 09:02:27;;;;;;;7.07;2.40;;;;;;;;;;5105983;28;20115;-77
2023/09/03 09:04:53;;;;;;;4.97;1.67;;;;;;;;;;5097783;28;20040;-77
2023/09/03 09:07:19;;;;;;;5.35;1.88;;;;;;;;;;5114108;28;20123;-77
2023/09/03 09:09:47;;;;;;;6.32;2.10;;;;;;;;;;5111165;28;20040;-77
2023/09/03 09:12:18;;;;;;;4.85;1.80;;;;;;;;;;5115295;27;20417;-77
2023/09/03 09:14:56;;;;;;;5.88;2.00;;;;;;;;;;5113537;28;20051;-78
2023/09/03 09:17:22;;;;;;;3.75;1.50;;;;;;;;;;5116138;28;20040;-78
2023/09/03 09:19:48;;;;;;;5.05;1.65;;;;;;;;;;5112850;28;20036;-78
2023/09/03 09:22:14;;;;;;;5.68;1.50;;;;;;;;;;5084922;28;20462;-77
2023/09/03 09:24:41;;;;;;;4.82;1.50;;;;;;;;;;5111208;28;20036;-78
2023/09/03 09:27:17;;;;;;;4.35;1.55;;;;;;;;;;5096840;28;20035;-77
2023/09/03 09:29:44;;;;;;;5.95;1.98;;;;;;;;;;5112748;28;20044;-78
2023/09/03 09:32:17;;;;;;;5.43;1.90;;;;;;;;;;5099779;28;20054;-78
2023/09/03 09:34:44;;;;;;;4.45;1.95;;;;;;;;;;5103828;28;20074;-77
2023/09/03 09:37:10;;;;;;;4.95;1.95;;;;;;;;;;5110130;28;20138;-78
2023/09/03 09:39:49;;;;;;;4.60;1.80;;;;;;;;;;5105033;28;20498;-77
2023/09/03 09:42:21;;;;;;;5.00;2.10;;;;;;;;;;5110316;28;20054;-77
2023/09/03 09:44:53;;;;;;;3.85;1.60;;;;;;;;;;5114189;28;20528;-77
2023/09/03 09:47:20;;;;;;;4.80;1.67;;;;;;;;;;5113245;28;20501;-77
2023/09/03 09:49:46;;;;;;;4.97;1.83;;;;;;;;;;5083879;28;20069;-77
2023/09/03 09:52:16;;;;;;;5.00;1.58;;;;;;;;;;5111592;28;20455;-77
2023/09/03 09:54:42;;;;;;;4.82;1.40;;;;;;;;;;5100634;28;20462;-77
2023/09/03 09:57:13;;;;;;;3.97;1.50;;;;;;;;;;5105177;28;20047;-78
2023/09/03 09:59:39;;;;;;;4.55;1.80;;;;;;;;;;5113490;28;20047;-79
2023/09/03 10:02:16;;;;;;;5.97;1.70;;;;;;;;;;5103345;28;20172;-77
2023/09/03 10:04:46;;;;;;;4.30;1.67;;;;;;;;;;5094321;28;20393;-77
2023/09/03 10:07:12;;;;;;;3.40;1.50;;;;;;;;;;5112552;28;20054;-78
2023/09/03 10:09:38;;;;;;;4.75;1.77;;;;;;;;;;5100015;28;20043;-77
2023/09/03 10:12:05;;;;;;;4.53;1.80;;;;;;;;;;5101209;28;20103;-77
2023/09/03 10:14:32;;;;;;;4.72;1.80;;;;;;;;;;5105948;28;20128;-78
2023/09/03 10:17:00;;;;;;;4.90;1.45;;;;;;;;;;5113300;28;20118;-77
2023/09/03 10:19:42;;;;;;;2.97;1.35;;;;;;;;;;5105154;28;20051;-79
2023/09/03 10:22:10;;;;;;;5.15;1.70;;;;;;;;;;5081888;28;20052;-78
2023/09/03 10:24:36;;;;;;;3.42;1.40;;;;;;;;;;5094152;28;20036;-77
2023/09/03 10:27:04;;;;;;;5.18;1.50;;;;;;;;;;5101304;28;20047;-78
2023/09/03 10:29:32;;;;;;;3.88;1.20;;;;;;;;;;5093456;28;20362;-78
2023/09/03 10:31:59;;;;;;;5.03;1.60;;;;;;;;;;5103565;28;20051;-78
2023/09/03 10:34:25;;;;;;;6.68;1.60;;;;;;;;;;5101109;28;20127;-77
2023/09/03 10:37:07;;;;;;;5.38;1.60;;;;;;;;;;5112458;28;20062;-78
2023/09/03 10:39:35;;;;;;;4.75;2.10;;;;;;;;;;5108096;28;20035;-78
2023/09/03 10:42:16;;;;;;;6.07;2.78;;;;;;;;;;5097022;28;20052;-78
2023/09/03 10:44:43;;;;;;;6.15;2.10;;;;;;;;;;5103934;28;20371;-77
2023/09/03 10:47:11;;;;;;;4.00;1.45;;;;;;;;;;5093421;28;20094;-77
2023/09/03 10:49:40;;;;;;;3.85;1.27;;;;;;;;;;5093248;28;20109;-78
2023/09/03 10:52:25;;;;;;;4.28;1.55;;;;;;;;;;5111504;28;20054;-78
2023/09/03 10:55:10;;;;;;;4.18;1.60;;;;;;;;;;5110993;28;20046;-78
2023/09/03 10:57:36;;;;;;;5.65;2.17;;;;;;;;;;5093488;28;20052;-78
2023/09/03 11:00:05;;;;;;;5.22;2.40;;;;;;;;;;5108729;28;20136;-78
2023/09/03 11:02:31;;;;;;;3.80;1.40;;;;;;;;;;5111467;28;20051;-78
2023/09/03 11:05:13;;;;;;;6.25;1.30;;;;;;;;;;5111355;28;20050;-78
2023/09/03 11:07:40;;;;;;;5.63;1.50;;;;;;;;;;5100603;28;20048;-78
2023/09/03 11:10:24;;;;;;;4.50;1.27;;;;;;;;;;5096378;28;20044;-77
2023/09/03 11:12:51;;;;;;;3.15;1.25;;;;;;;;;;5115690;28;20035;-79
2023/09/03 11:15:17;;;;;;;5.03;2.17;;;;;;;;;;5120703;28;20067;-79
2023/09/03 11:17:56;;;;;;;3.80;1.20;;;;;;;;;;5119199;28;20058;-78
2023/09/03 11:20:35;;;;;;;4.88;1.38;;;;;;;;;;5101286;28;20043;-79
2023/09/03 11:23:02;;;;;;;3.80;1.48;;;;;;;;;;5115459;28;20050;-77
2023/09/03 11:25:35;;;;;;;4.07;1.20;;;;;;;;;;5118029;28;20068;-78
2023/09/03 11:28:02;;;;;;;5.03;1.70;;;;;;;;;;5117905;28;20051;-79
2023/09/03 11:30:28;;;;;;;5.18;1.33;;;;;;;;;;5118549;28;20039;-78
2023/09/03 11:32:55;;;;;;;3.83;1.25;;;;;;;;;;5102722;28;20048;-78
2023/09/03 11:35:21;;;;;;;4.03;1.17;;;;;;;;;;5100601;28;20056;-78
2023/09/03 11:37:48;;;;;;;4.18;1.20;;;;;;;;;;5093147;28;20047;-77
2023/09/03 11:40:15;;;;;;;4.32;1.40;;;;;;;;;;5080444;28;20464;-77
2023/09/03 11:42:44;;;;;;;3.38;1.20;;;;;;;;;;5101081;28;20055;-77
2023/09/03 11:45:11;;;;;;;3.08;1.10;;;;;;;;;;5095596;28;20044;-77
2023/09/03 11:47:41;;;;;;;2.50;1.08;;;;;;;;;;5104207;28;20040;-78
2023/09/03 11:50:13;;;;;;;4.07;1.13;;;;;;;;;;5117575;28;20055;-77
2023/09/03 11:52:40;;;;;;;3.67;1.27;;;;;;;;;;5117975;28;20130;-79
2023/09/03 11:55:06;;;;;;;2.78;0.98;;;;;;;;;;5117981;28;20040;-78
2023/09/03 11:57:36;;;;;;;3.17;1.25;;;;;;;;;;5116259;28;20043;-78
2023/09/03 12:00:03;;;;;;;3.85;1.15;;;;;;;;;;5116444;28;20489;-79
2023/09/03 12:02:29;;;;;;;3.95;1.10;;;;;;;;;;5118915;28;20044;-78
2023/09/03 12:04:55;;;;;;;4.38;1.00;;;;;;;;;;5117788;28;20113;-82
2023/09/03 12:07:21;;;;;;;4.22;1.77;;;;;;;;;;5119012;27;20048;-77
2023/09/03 12:09:51;;;;;;;3.92;1.55;;;;;;;;;;5099579;28;20051;-78
2023/09/03 12:12:19;;;;;;;3.70;1.20;;;;;;;;;;5111804;28;20378;-78
2023/09/03 12:14:45;;;;;;;4.15;1.35;;;;;;;;;;5117043;27;20035;-78
2023/09/03 12:17:11;;;;;;;3.20;1.20;;;;;;;;;;5114669;28;20047;-78
2023/09/03 12:19:37;;;;;;;3.65;1.20;;;;;;;;;;5116158;28;20066;-78
2023/09/03 12:22:03;;;;;;;3.75;1.20;;;;;;;;;;5117250;28;20048;-78
2023/09/03 12:24:30;;;;;;;3.15;1.00;;;;;;;;;;5118556;28;20044;-78
2023/09/03 12:27:05;;;;;;;2.88;1.08;;;;;;;;;;5117117;28;20047;-78
2023/09/03 12:29:36;;;;;;;5.25;1.20;;;;;;;;;;5117372;28;20110;-77
2023/09/03 12:32:02;;;;;;;4.18;1.40;;;;;;;;;;5118290;28;20040;-78
2023/09/03 12:34:32;;;;;;;3.50;1.20;;;;;;;;;;5124431;27;20039;-78
2023/09/03 12:36:58;;;;;;;3.80;1.13;;;;;;;;;;5127276;27;20379;-79
2023/09/03 12:39:31;;;;;;;4.00;1.23;;;;;;;;;;5119365;28;20147;-79
2023/09/03 12:41:58;;;;;;;2.95;1.10;;;;;;;;;;5123403;27;20043;-78
2023/09/03 12:44:24;;;;;;;3.97;1.20;;;;;;;;;;5126707;27;20048;-78
2023/09/03 12:46:51;;;;;;;3.42;1.20;;;;;;;;;;5097383;28;20067;-78
2023/09/03 12:49:17;;;;;;;5.40;1.20;;;;;;;;;;5125187;27;20048;-78
2023/09/03 12:51:43;;;;;;;3.33;1.10;;;;;;;;;;5117453;28;20130;-77
2023/09/03 12:54:09;;;;;;;3.33;1.20;;;;;;;;;;5115185;28;20092;-78
2023/09/03 12:56:35;;;;;;;3.45;1.13;;;;;;;;;;5118307;28;20070;-79
2023/09/03 12:59:05;;;;;;;2.55;1.02;;;;;;;;;;5117868;28;20058;-78
2023/09/03 13:01:31;;;;;;;3.47;1.15;;;;;;;;;;5117401;28;20390;-77
2023/09/03 13:03:58;;;;;;;3.65;1.10;;;;;;;;;;5117330;28;20103;-77
2023/09/03 13:06:24;;;;;;;3.53;1.15;;;;;;;;;;5117883;28;20048;-78
2023/09/03 13:08:51;;;;;;;2.38;1.02;;;;;;;;;;5116860;28;20045;-77
2023/09/03 13:11:18;;;;;;;3.30;1.00;;;;;;;;;;5116614;28;20051;-78
2023/09/03 13:13:49;;;;;;;2.40;0.90;;;;;;;;;;5118348;28;20047;-78
2023/09/03 13:16:22;;;;;;;2.63;1.10;;;;;;;;;;5117300;28;20437;-78
2023/09/03 13:18:49;;;;;;;3.72;1.13;;;;;;;;;;5115489;28;20039;-78
2023/09/03 13:21:19;;;;;;;3.45;1.13;;;;;;;;;;5118013;28;20069;-78
2023/09/03 13:23:45;;;;;;;3.47;1.15;;;;;;;;;;5118298;28;20103;-78
2023/09/03 13:26:11;;;;;;;3.97;1.00;;;;;;;;;;5117826;28;20528;-78
2023/09/03 13:28:38;;;;;;;3.38;1.15;;;;;;;;;;5115813;28;20040;-77
2023/09/03 13:31:04;;;;;;;3.72;1.00;;;;;;;;;;5101310;28;20501;-79
2023/09/03 13:33:31;;;;;;;3.67;1.00;;;;;;;;;;5102440;28;20040;-82
2023/09/03 13:35:57;;;;;;;2.92;1.10;;;;;;;;;;5119892;28;20486;-80
2023/09/03 13:38:24;;;;;;;3.30;1.17;;;;;;;;;;5120611;28;20092;-78
2023/09/03 13:40:51;;;;;;;3.60;1.45;;;;;;;;;;5096203;28;20499;-80
2023/09/03 13:43:17;;;;;;;4.57;1.45;;;;;;;;;;5107915;28;20066;-78
2023/09/03 13:45:56;;;;;;;4.63;1.45;;;;;;;;;;5115027;28;20104;-78
2023/09/03 13:48:22;;;;;;;3.78;1.23;;;;;;;;;;5117161;28;20108;-78
2023/09/03 13:50:51;;;;;;;3.88;1.02;;;;;;;;;;5116929;28;20069;-78
2023/09/03 13:53:17;;;;;;;3.03;0.90;;;;;;;;;;5107605;28;20036;-78
2023/09/03 13:55:43;;;;;;;3.20;1.23;;;;;;;;;;5096467;28;20467;-78
2023/09/03 13:58:09;;;;;;;3.20;1.05;;;;;;;;;;5098135;28;20131;-80
2023/09/03 14:00:38;;;;;;;2.85;0.98;;;;;;;;;;5098292;28;20056;-79
2023/09/03 14:03:04;;;;;;;3.35;1.30;;;;;;;;;;5116021;28;20523;-77
2023/09/03 14:05:30;;;;;;;2.40;1.05;;;;;;;;;;5117266;28;20066;-78
2023/09/03 14:07:56;;;;;;;2.90;1.00;;;;;;;;;;5116723;28;20044;-78
2023/09/03 14:10:23;;;;;;;2.95;1.00;;;;;;;;;;5099750;28;20171;-78
2023/09/03 14:12:49;;;;;;;2.88;1.00;;;;;;;;;;5094965;28;20035;-78
2023/09/03 14:15:15;;;;;;;3.00;1.02;;;;;;;;;;5114481;28;20047;-78
2023/09/03 14:17:41;;;;;;;3.20;1.10;;;;;;;;;;5115093;28;20087;-79
2023/09/03 14:20:08;;;;;;;2.67;1.08;;;;;;;;;;5117023;28;20040;-79
2023/09/03 14:22:34;;;;;;;3.78;1.02;;;;;;;;;;5106664;28;20052;-79
2023/09/03 14:25:00;;;;;;;4.43;1.10;;;;;;;;;;5108150;28;20040;-78
2023/09/03 14:27:26;;;;;;;3.83;1.10;;;;;;;;;;5115695;28;20071;-78
2023/09/03 14:29:52;;;;;;;3.90;1.23;;;;;;;;;;5116477;28;20420;-79
2023/09/03 14:32:18;;;;;;;3.33;1.08;;;;;;;;;;5115802;28;20054;-79
2023/09/03 14:34:44;;;;;;;2.58;0.90;;;;;;;;;;5102598;28;20493;-80
2023/09/03 14:37:10;;;;;;;2.42;0.95;;;;;;;;;;5114597;28;20050;-79
2023/09/03 14:39:37;;;;;;;2.55;0.95;;;;;;;;;;5116613;28;20093;-78
2023/09/03 14:42:04;;;;;;;3.80;1.00;;;;;;;;;;5116388;28;20048;-79